Historyczne dane pomiarowe

Dodano dane terminowe – wersja testowa.

Dane z okresu 1951-2019

Wersja bazy: 1.34 [2019-03-16, lista zmian], aktualizacja planowana na 2019-04-15

Dane meteo z obszaru Polski uzyskane na podstawie danych udostępnionych przez Instytut Meteorologii i Gospodarki Wodnej – Państwowy Instytut Badawczy.

 

Wybierz Datę:    

       

TemperaturaWilgotnośćWiatrCiśnienieOpadyŚniegCzas trwania zjawisk
 Stacja t tx tn tng RH VA  wxwx mslp ppp RRR   cm mm wxwxwxwxwxwxwx
1984-05-15 15.2 22.1 10.0 7.5 86.0- 3.0 4.0---- 0.0------------
1984-05-16 17.4 23.1 10.0 7.1 65.5- 1.0 3.3---- 0.0------------
1984-05-17 17.2 23.3 10.0 9.9 79.3- 3.0 4.7---- 15.8------------
1984-05-18 15.6 22.5 8.1 6.3 86.3- 1.0 2.0---- 11.6------------
1984-05-19 13.7 19.1 7.7 8.8 79.5- 2.7 2.3---- 0.0------------
1984-05-20 14.9 21.9 4.0 2.0 74.0- 0.3 3.3---- 0.0------------
1984-05-21 19.3 24.8 10.7 6.5 67.5- 1.0 7.7---- 1.3------------
1984-05-22 16.4 22.5 13.3 12.4 76.3- 2.0 4.3---- 0.0------------
1984-05-23 13.9 19.4 7.5 4.0 84.5- 0.3 2.3---- 4.0------------
1984-05-24 14.8 18.8 11.7 10.2 77.0- 2.7 3.3---- 0.7------------
1984-05-25 12.1 18.3 4.2 1.8 86.3- 3.7 2.3---- 18.6------------
1984-05-26 12.5 14.7 11.0 10.9 91.5- 6.0 2.7---- 5.7------------
1984-05-27 13.7 18.8 9.0 6.3 81.5- 0.3 3.0---- 0.0------------
1984-05-28 15.2 22.3 9.7 5.7 82.0- 2.0 4.3---- 2.5------------
1984-05-29 16.2 22.2 10.5 6.0 79.8- 0.7 2.7---- 5.7------------
1984-05-30 14.1 20.7 7.0 6.9 88.5- 0.3 0.7---- 9.8------------
1984-05-31 16.7 22.6 13.0 11.8 85.5- 3.7 3.7---- 5.6------------
1984-06-01 17.3 23.6 11.2 8.4 78.8- 0.7 2.0---- 0.0------------
1984-06-02 16.6 21.9 12.5 9.4 86.8- 2.0 3.3---- 1.2------------
1984-06-03 18.0 24.0 12.4 13.7 84.5- 0.3 2.0---- 0.0------------
1984-06-04 18.9 23.8 12.3 9.6 70.8- 0.3 4.3---- 0.0------------
1984-06-05 17.9 22.5 15.1 12.0 77.0- 3.0 4.0---- 4.8------------
1984-06-06 18.0 24.4 14.4 13.3 81.0- 1.7 2.7---- 4.6------------
1984-06-07 14.1 18.3 10.0 7.7 77.0- 4.0 4.0---- 2.0------------
1984-06-08 13.3 17.3 10.5 7.9 86.0- 1.7 2.0---- 2.0------------
1984-06-09 11.3 15.6 8.4 5.2 77.0- 2.7 5.7---- 0.8------------
1984-06-10 8.0 12.3 4.8 0.0 85.0- 4.3 2.7---- 6.4------------
1984-06-11 9.1 13.2 4.2 -0.7 69.3- 0.7 4.3---- 3.9------------
1984-06-12 9.7 13.8 3.0 -1.8 65.5- 0.3 3.3---- 0.0------------
1984-06-13 11.0 16.8 0.1 -3.2 65.5- 1.7 4.0---- 6.5------------
1150.4 ms

 

Źródłem pochodzenia danych jest Instytut Meteorologii i Gospodarki Wodnej – Państwowy Instytut Badawczy. Dane Instytutu Meteorologii i Gospodarki Wodnej – Państwowego Instytutu Badawczego zostały przetworzone.

Dane źródłowe można odnaleźć na stronie https://dane.imgw.pl